Time;durP1;ratioP1;P1;durP2;ratioP2;P2;SDS_P1;SDS_P2;PMS_P1;PMS_P2;Temp;Humidity;BMP_temperature;BMP_pressure;BME280_temperature;BME280_humidity;BME280_pressure;Samples;Min_cycle;Max_cycle;Signal;HPM_P1;HPM_P2
2023/07/21 00:02:09;;;;;;;1.92;1.10;;;;;;;15.08;70.60;101381.47;7404190;19;19926;-71
2023/07/21 00:04:37;;;;;;;2.85;1.50;;;;;;;15.05;70.26;101381.88;7403917;19;19922;-72
2023/07/21 00:07:07;;;;;;;2.55;1.48;;;;;;;15.03;70.58;101377.66;7401499;19;19939;-71
2023/07/21 00:09:37;;;;;;;3.60;1.60;;;;;;;14.98;70.80;101373.66;7399670;19;19915;-71
2023/07/21 00:12:06;;;;;;;3.97;1.60;;;;;;;14.94;70.78;101371.50;7403114;19;19943;-71
2023/07/21 00:14:35;;;;;;;4.05;2.03;;;;;;;14.89;70.81;101371.25;7403173;19;20336;-72
2023/07/21 00:17:05;;;;;;;3.80;1.60;;;;;;;14.81;70.69;101369.50;7402582;19;19911;-71
2023/07/21 00:19:36;;;;;;;3.63;1.60;;;;;;;14.76;71.19;101362.97;7402124;19;19920;-71
2023/07/21 00:22:06;;;;;;;3.13;1.98;;;;;;;14.69;71.41;101362.06;7403150;19;19927;-72
2023/07/21 00:24:34;;;;;;;1.90;1.52;;;;;;;14.66;71.15;101365.16;7403339;19;20407;-72
2023/07/21 00:27:03;;;;;;;4.88;1.67;;;;;;;14.63;71.52;101360.09;7402082;19;19929;-71
2023/07/21 00:29:32;;;;;;;3.35;2.13;;;;;;;14.60;71.29;101361.34;7402202;19;20323;-71
2023/07/21 00:32:02;;;;;;;3.17;2.30;;;;;;;14.60;71.34;101361.34;7402123;19;19922;-71
2023/07/21 00:34:30;;;;;;;2.78;2.10;;;;;;;14.62;71.35;101359.28;7402598;19;20559;-71
2023/07/21 00:37:01;;;;;;;4.22;2.67;;;;;;;14.66;71.43;101357.03;7402566;19;19918;-71
2023/07/21 00:39:30;;;;;;;5.32;2.40;;;;;;;14.64;71.01;101357.22;7403567;19;20340;-71
2023/07/21 00:41:59;;;;;;;3.50;2.20;;;;;;;14.63;71.60;101349.25;7402289;19;19939;-73
2023/07/21 00:44:27;;;;;;;5.22;2.50;;;;;;;14.63;71.52;101350.09;7399974;19;19926;-73
2023/07/21 00:46:56;;;;;;;6.00;2.85;;;;;;;14.67;71.52;101342.44;7402456;19;19930;-72
2023/07/21 00:49:25;;;;;;;4.43;2.58;;;;;;;14.69;71.31;101343.06;7400384;19;19930;-71
2023/07/21 00:51:54;;;;;;;3.85;2.70;;;;;;;14.67;71.29;101340.53;7400311;19;19941;-72
2023/07/21 00:54:25;;;;;;;4.18;2.45;;;;;;;14.66;71.90;101341.59;7403373;19;19919;-71
2023/07/21 00:56:55;;;;;;;4.25;2.22;;;;;;;14.65;71.96;101344.50;7401309;19;19922;-71
2023/07/21 00:59:24;;;;;;;3.58;2.63;;;;;;;14.62;72.08;101339.47;7398616;19;20381;-72
2023/07/21 01:01:53;;;;;;;4.05;2.50;;;;;;;14.60;72.45;101345.06;7397833;19;19914;-71
2023/07/21 01:04:22;;;;;;;4.18;2.33;;;;;;;14.57;72.44;101341.91;7398795;19;19929;-72
2023/07/21 01:06:50;;;;;;;2.75;2.00;;;;;;;14.57;72.95;101344.63;7402129;19;19922;-72
2023/07/21 01:09:22;;;;;;;5.07;2.75;;;;;;;14.53;72.95;101339.59;7398560;19;19943;-71
2023/07/21 01:11:54;;;;;;;4.07;2.70;;;;;;;14.49;73.35;101338.28;7402289;19;19915;-71
2023/07/21 01:14:23;;;;;;;9.05;3.00;;;;;;;14.46;73.44;101341.38;7402759;19;19915;-71
2023/07/21 01:16:54;;;;;;;4.22;3.03;;;;;;;14.44;73.48;101332.59;7401405;19;19922;-71
2023/07/21 01:19:22;;;;;;;4.13;2.70;;;;;;;14.40;73.53;101331.31;7399752;19;19930;-71
2023/07/21 01:21:56;;;;;;;4.72;2.63;;;;;;;14.40;73.43;101327.75;7401570;19;20312;-72
2023/07/21 01:24:32;;;;;;;5.10;2.78;;;;;;;14.40;73.41;101325.88;7401547;19;19947;-71
2023/07/21 01:27:05;;;;;;;3.80;3.03;;;;;;;14.37;73.57;101334.38;7401667;19;19929;-72
2023/07/21 01:29:37;;;;;;;3.72;2.47;;;;;;;14.35;73.52;101319.31;7400715;19;19947;-71
2023/07/21 01:32:09;;;;;;;3.80;3.03;;;;;;;14.32;73.71;101320.53;7401142;19;19935;-71
2023/07/21 01:34:39;;;;;;;5.80;3.00;;;;;;;14.30;73.65;101321.75;7401056;19;19947;-71
2023/07/21 01:37:09;;;;;;;5.38;3.00;;;;;;;14.24;73.51;101311.69;7401002;19;19926;-72
2023/07/21 01:39:39;;;;;;;5.53;3.10;;;;;;;14.19;73.90;101314.13;7400944;19;19985;-72
2023/07/21 01:42:11;;;;;;;6.55;3.25;;;;;;;14.14;74.17;101314.69;7401888;19;19922;-71
2023/07/21 01:44:40;;;;;;;5.53;2.90;;;;;;;14.10;73.87;101307.97;7399520;19;19943;-72
2023/07/21 01:47:09;;;;;;;4.22;2.80;;;;;;;14.12;73.98;101299.63;7399140;19;19926;-72
2023/07/21 01:49:38;;;;;;;3.50;2.00;;;;;;;14.09;73.97;101303.56;7399508;19;19936;-72
2023/07/21 01:52:08;;;;;;;4.07;2.58;;;;;;;14.11;73.42;101303.41;7398853;19;20333;-71
2023/07/21 01:54:44;;;;;;;7.60;2.92;;;;;;;14.09;73.86;101300.88;7399686;19;20386;-71
2023/07/21 01:57:22;;;;;;;3.83;2.58;;;;;;;14.06;73.81;101301.25;7400118;19;19922;-72
2023/07/21 01:59:52;;;;;;;3.47;2.30;;;;;;;14.02;73.66;101291.81;7399768;19;19919;-71
2023/07/21 02:02:21;;;;;;;5.93;2.80;;;;;;;13.97;73.88;101296.97;7396159;19;19982;-71
2023/07/21 02:04:53;;;;;;;3.13;2.08;;;;;;;13.93;73.83;101288.38;7399282;19;19923;-72
2023/07/21 02:07:22;;;;;;;2.92;1.95;;;;;;;13.91;73.84;101287.72;7399986;19;19922;-71
2023/07/21 02:09:51;;;;;;;4.22;2.33;;;;;;;13.90;73.89;101290.59;7397246;19;19922;-71
2023/07/21 02:12:23;;;;;;;2.72;2.03;;;;;;;13.87;74.24;101293.69;7398897;19;20633;-71
2023/07/21 02:14:52;;;;;;;5.65;2.20;;;;;;;13.83;74.24;101284.25;7397961;19;19998;-71
2023/07/21 02:17:20;;;;;;;3.80;2.10;;;;;;;13.79;74.02;101286.50;7397397;19;19918;-72
2023/07/21 02:19:49;;;;;;;4.05;2.40;;;;;;;13.76;74.48;101283.34;7398997;19;19930;-71
2023/07/21 02:22:17;;;;;;;3.03;2.25;;;;;;;13.78;74.54;101281.28;7399486;19;19938;-71
2023/07/21 02:24:46;;;;;;;2.92;2.03;;;;;;;13.78;74.52;101284.81;7396564;19;19926;-71
2023/07/21 02:27:14;;;;;;;5.25;2.63;;;;;;;13.78;74.79;101278.56;7397573;19;19939;-71
2023/07/21 02:29:49;;;;;;;3.28;2.00;;;;;;;13.76;75.06;101275.22;7397231;19;19922;-71
2023/07/21 02:32:17;;;;;;;3.47;2.30;;;;;;;13.78;74.65;101279.41;7399993;19;20184;-71
2023/07/21 02:34:46;;;;;;;3.42;2.25;;;;;;;13.76;74.74;101275.22;7396192;19;20380;-72
2023/07/21 02:37:15;;;;;;;4.53;1.92;;;;;;;13.74;74.91;101269.97;7398296;19;20678;-72
2023/07/21 02:39:43;;;;;;;5.20;2.40;;;;;;;13.78;74.54;101273.16;7399374;19;19944;-72
2023/07/21 02:42:12;;;;;;;6.38;3.00;;;;;;;13.78;74.51;101271.28;7396273;19;20278;-71
2023/07/21 02:44:40;;;;;;;5.07;3.33;;;;;;;13.79;74.95;101274.84;7394787;19;19930;-71
2023/07/21 02:47:16;;;;;;;3.92;2.38;;;;;;;13.78;74.93;101278.56;7395304;19;19923;-72
2023/07/21 02:49:45;;;;;;;4.05;2.40;;;;;;;13.76;74.62;101273.34;7397625;19;19918;-71
2023/07/21 02:52:14;;;;;;;5.03;2.50;;;;;;;13.75;75.03;101273.53;7395995;19;20270;-72
2023/07/21 02:54:43;;;;;;;6.28;2.95;;;;;;;13.70;74.82;101265.97;7398458;19;19931;-71
2023/07/21 02:57:11;;;;;;;4.30;2.78;;;;;;;13.67;74.79;101273.63;7398056;19;19951;-71
2023/07/21 02:59:41;;;;;;;4.43;2.50;;;;;;;13.66;74.85;101267.38;7398201;19;20010;-71
2023/07/21 03:02:12;;;;;;;4.03;2.47;;;;;;;13.67;75.01;101270.94;7396905;19;19934;-71
2023/07/21 03:04:42;;;;;;;4.10;2.85;;;;;;;13.66;74.88;101269.25;7398272;19;19922;-71
2023/07/21 03:07:12;;;;;;;5.43;3.22;;;;;;;13.65;74.82;101273.81;7398027;19;19994;-72
2023/07/21 03:09:41;;;;;;;4.60;2.90;;;;;;;13.61;74.83;101265.22;7398474;19;19928;-72
2023/07/21 03:12:10;;;;;;;4.22;2.30;;;;;;;13.59;74.93;101263.75;7398298;19;19939;-71
2023/07/21 03:14:40;;;;;;;5.47;2.58;;;;;;;13.53;75.09;101259.06;7398703;19;19921;-72
2023/07/21 03:17:08;;;;;;;5.25;2.90;;;;;;;13.48;75.48;101266.91;7397753;19;19939;-72
2023/07/21 03:19:40;;;;;;;4.72;2.60;;;;;;;13.48;75.48;101256.91;7398230;19;19926;-71
2023/07/21 03:22:08;;;;;;;3.75;2.47;;;;;;;13.48;75.12;101261.50;7397936;19;19943;-72
2023/07/21 03:24:39;;;;;;;7.10;3.13;;;;;;;13.45;75.44;101253.75;7399591;19;19926;-72
2023/07/21 03:27:08;;;;;;;6.80;3.25;;;;;;;13.40;75.55;101251.59;7402781;19;19939;-72
2023/07/21 03:29:37;;;;;;;5.38;2.72;;;;;;;13.38;75.40;101259.06;7404492;19;19919;-71
2023/07/21 03:32:06;;;;;;;3.50;2.47;;;;;;;13.38;75.31;101256.34;7404735;19;20368;-71
2023/07/21 03:34:35;;;;;;;4.45;3.05;;;;;;;13.38;75.67;101258.22;7404785;19;19914;-71
2023/07/21 03:37:08;;;;;;;4.55;2.88;;;;;;;13.35;75.83;101256.72;7404307;19;20369;-71
2023/07/21 03:39:36;;;;;;;4.90;3.00;;;;;;;13.32;75.32;101251.69;7405064;19;19926;-72
2023/07/21 03:42:05;;;;;;;4.00;2.65;;;;;;;13.31;75.33;101243.75;7404021;19;19915;-71
2023/07/21 03:44:34;;;;;;;4.20;2.50;;;;;;;13.29;75.69;101249.34;7402449;19;19922;-72
2023/07/21 03:47:03;;;;;;;7.18;2.72;;;;;;;13.30;75.50;101255.59;7404281;19;19935;-71
2023/07/21 03:49:31;;;;;;;5.70;2.83;;;;;;;13.31;76.03;101254.59;7404181;19;20307;-71
2023/07/21 03:52:00;;;;;;;5.13;2.75;;;;;;;13.31;75.86;101250.00;7401869;19;19924;-72
2023/07/21 03:54:31;;;;;;;4.05;2.70;;;;;;;13.30;75.97;101253.72;7401443;19;19954;-71
2023/07/21 03:57:00;;;;;;;5.60;2.83;;;;;;;13.30;76.06;101248.31;7404220;19;19921;-71
2023/07/21 03:59:29;;;;;;;4.82;3.03;;;;;;;13.29;76.13;101243.94;7403307;19;19927;-71
2023/07/21 04:01:57;;;;;;;3.80;2.70;;;;;;;13.31;76.39;101246.47;7403950;19;19963;-72
2023/07/21 04:04:26;;;;;;;3.78;2.55;;;;;;;13.31;76.83;101246.47;7400733;19;19935;-71
2023/07/21 04:06:55;;;;;;;4.90;2.90;;;;;;;13.30;76.69;101251.03;7402957;19;19927;-72
2023/07/21 04:09:23;;;;;;;5.55;2.88;;;;;;;13.31;76.50;101260.84;7403696;19;19938;-71
2023/07/21 04:11:54;;;;;;;6.10;3.10;;;;;;;13.30;76.78;101247.47;7401726;19;19951;-71
2023/07/21 04:14:23;;;;;;;4.10;2.60;;;;;;;13.30;76.31;101256.44;7401742;19;20372;-72
2023/07/21 04:16:53;;;;;;;5.15;2.97;;;;;;;13.27;77.07;101251.41;7403364;19;20463;-71
2023/07/21 04:19:25;;;;;;;5.85;2.80;;;;;;;13.31;76.50;101250.00;7402717;19;19939;-71
2023/07/21 04:21:54;;;;;;;;;;;;;;;13.13;78.53;101247.66;7404914;19;19939;-72
2023/07/21 04:24:22;;;;;;;9.13;3.00;;;;;;;13.25;76.31;101245.31;7402584;19;20361;-71
2023/07/21 04:26:51;;;;;;;3.65;2.88;;;;;;;13.25;76.63;101245.31;7403865;19;19943;-72
2023/07/21 04:29:22;;;;;;;4.50;2.75;;;;;;;13.27;76.74;101237.88;7401335;19;20639;-72
2023/07/21 04:31:50;;;;;;;5.68;3.05;;;;;;;13.29;76.42;101245.81;7402502;19;19918;-71
2023/07/21 04:34:18;;;;;;;8.23;2.90;;;;;;;13.32;76.85;101246.28;7403285;19;20381;-72
2023/07/21 04:36:46;;;;;;;4.03;3.03;;;;;;;13.36;76.68;101244.88;7400623;19;19930;-71
2023/07/21 04:39:15;;;;;;;5.05;2.88;;;;;;;13.37;76.78;101246.56;7401709;19;19919;-71
2023/07/21 04:41:44;;;;;;;4.88;3.25;;;;;;;13.39;77.00;101240.97;7402804;19;20281;-72
2023/07/21 04:44:13;;;;;;;4.13;2.63;;;;;;;13.41;76.87;101241.63;7400803;19;19981;-71
2023/07/21 04:46:45;;;;;;;6.90;2.75;;;;;;;13.45;76.78;101246.47;7401747;19;19919;-71
2023/07/21 04:49:13;;;;;;;5.82;3.03;;;;;;;13.50;76.59;101249.44;7401097;19;19922;-72
2023/07/21 04:51:42;;;;;;;4.38;2.72;;;;;;;13.53;76.84;101243.69;7400176;19;19922;-71
2023/07/21 04:54:11;;;;;;;5.80;3.17;;;;;;;13.59;76.83;101251.03;7402674;19;20044;-71
2023/07/21 04:56:40;;;;;;;3.75;2.65;;;;;;;13.66;76.94;101242.16;7401043;19;19926;-72
2023/07/21 04:59:09;;;;;;;4.40;3.08;;;;;;;13.68;76.38;101246.34;7400684;19;19930;-72
2023/07/21 05:01:37;;;;;;;5.18;3.17;;;;;;;13.74;76.70;101250.19;7401072;19;20741;-72
2023/07/21 05:04:08;;;;;;;6.38;3.10;;;;;;;13.82;76.80;101247.38;7401405;19;20277;-71
2023/07/21 05:06:37;;;;;;;4.60;3.03;;;;;;;13.90;76.51;101241.84;7401497;19;19918;-71
2023/07/21 05:09:06;;;;;;;5.80;3.72;;;;;;;13.98;76.57;101249.84;7402375;19;19918;-72
2023/07/21 05:11:34;;;;;;;3.92;2.55;;;;;;;14.02;76.47;101248.47;7398985;19;19974;-71
2023/07/21 05:14:03;;;;;;;3.92;2.92;;;;;;;14.07;75.56;101248.72;7399170;19;19922;-71
2023/07/21 05:16:31;;;;;;;5.38;3.00;;;;;;;14.13;75.49;101252.53;7399871;19;20325;-72
2023/07/21 05:19:01;;;;;;;5.60;2.92;;;;;;;14.19;75.27;101249.94;7400711;19;19955;-72
2023/07/21 05:21:32;;;;;;;3.88;2.35;;;;;;;14.24;75.78;101249.34;7400105;19;19954;-72
2023/07/21 05:24:01;;;;;;;4.75;2.30;;;;;;;14.28;75.08;101242.53;7394423;19;19926;-73
2023/07/21 05:26:30;;;;;;;6.47;2.15;;;;;;;14.33;74.77;101248.19;7393563;19;20031;-72
2023/07/21 05:29:00;;;;;;;5.47;1.98;;;;;;;14.38;74.70;101246.59;7398053;19;19923;-73
2023/07/21 05:31:28;;;;;;;2.88;2.25;;;;;;;14.44;74.55;101245.00;7396855;19;20352;-72
2023/07/21 05:33:57;;;;;;;3.63;2.58;;;;;;;14.49;74.31;101242.56;7398365;19;19940;-72
2023/07/21 05:36:26;;;;;;;3.38;2.13;;;;;;;14.55;74.48;101249.91;7397273;19;19930;-72
2023/07/21 05:38:57;;;;;;;4.93;2.30;;;;;;;14.61;74.49;101248.31;7398448;19;19943;-71
2023/07/21 05:41:26;;;;;;;2.35;1.80;;;;;;;14.66;74.03;101248.56;7399312;19;19919;-72
2023/07/21 05:43:54;;;;;;;6.32;2.20;;;;;;;14.71;73.93;101244.22;7400479;19;19922;-73
2023/07/21 05:46:23;;;;;;;6.07;2.33;;;;;;;14.76;74.01;101252.59;7402294;19;20540;-72
2023/07/21 05:48:52;;;;;;;3.58;2.05;;;;;;;14.81;73.66;101249.31;7401554;19;19955;-72
2023/07/21 05:51:20;;;;;;;3.75;2.55;;;;;;;14.85;73.90;101246.00;7399501;19;19918;-72
2023/07/21 05:53:49;;;;;;;3.67;2.22;;;;;;;14.89;74.06;101243.75;7401244;19;19919;-72
2023/07/21 05:56:20;;;;;;;4.15;1.98;;;;;;;14.94;73.56;101241.28;7400678;19;19923;-72
2023/07/21 05:58:49;;;;;;;7.18;2.20;;;;;;;14.94;73.46;101244.84;7400328;19;19943;-71
2023/07/21 06:01:17;;;;;;;7.28;2.05;;;;;;;14.97;73.42;101249.06;7400330;19;19939;-72
2023/07/21 06:03:46;;;;;;;4.90;1.95;;;;;;;14.99;73.51;101249.69;7399589;19;19919;-72
2023/07/21 06:06:15;;;;;;;4.18;2.00;;;;;;;15.02;74.03;101249.28;7399405;19;20294;-71
2023/07/21 06:08:43;;;;;;;4.55;2.33;;;;;;;15.01;73.74;101247.63;7398208;19;19925;-72
2023/07/21 06:11:12;;;;;;;3.55;2.00;;;;;;;15.03;73.86;101250.13;7397867;19;19932;-72
2023/07/21 06:13:43;;;;;;;6.30;2.67;;;;;;;15.04;73.80;101244.50;7400617;19;19918;-80
2023/07/21 06:16:12;;;;;;;5.40;2.28;;;;;;;15.09;73.55;101235.78;7406137;19;19922;-86
2023/07/21 06:18:42;;;;;;;6.00;2.25;;;;;;;15.11;73.55;101234.53;7406346;19;19922;-89
2023/07/21 06:21:11;;;;;;;5.22;2.15;;;;;;;15.13;72.90;101232.47;7404591;19;20601;-86
2023/07/21 06:23:40;;;;;;;6.57;2.00;;;;;;;15.14;72.42;101236.88;7406315;19;19915;-82
2023/07/21 06:26:10;;;;;;;3.97;1.52;;;;;;;15.19;72.18;101239.81;7404714;19;19947;-87
2023/07/21 06:28:38;;;;;;;6.70;1.77;;;;;;;15.22;71.69;101236.72;7402913;19;19929;-84
2023/07/21 06:31:12;;;;;;;5.78;1.38;;;;;;;15.27;71.18;101239.66;7405874;19;19981;-84
2023/07/21 06:33:41;;;;;;;3.25;1.23;;;;;;;15.32;71.35;101228.19;7407149;19;19930;-79
2023/07/21 06:36:09;;;;;;;6.03;1.75;;;;;;;15.35;71.25;101234.09;7403000;19;19922;-79
2023/07/21 06:38:38;;;;;;;3.20;1.27;;;;;;;15.41;70.72;101227.00;7402710;19;19922;-84
2023/07/21 06:41:06;;;;;;;2.92;1.70;;;;;;;15.45;70.47;101218.25;7401928;19;19926;-85
2023/07/21 06:43:35;;;;;;;3.80;1.20;;;;;;;15.51;69.58;101227.53;7406269;19;19918;-85
2023/07/21 06:46:05;;;;;;;4.70;1.60;;;;;;;15.57;69.97;101223.16;7405752;19;20270;-84
2023/07/21 06:48:37;;;;;;;4.25;1.60;;;;;;;15.61;69.68;101221.72;7406555;19;20263;-83
2023/07/21 06:51:05;;;;;;;1.92;1.08;;;;;;;15.66;69.29;101216.53;7403484;19;19926;-85
2023/07/21 06:53:34;;;;;;;2.60;1.45;;;;;;;15.72;68.94;101218.44;7405278;19;19956;-86
2023/07/21 06:56:02;;;;;;;2.88;1.50;;;;;;;15.79;68.85;101213.88;7405396;19;20808;-84
2023/07/21 06:58:31;;;;;;;1.83;1.00;;;;;;;15.83;68.11;101207.00;7404855;19;20002;-84
2023/07/21 07:01:00;;;;;;;4.05;1.30;;;;;;;15.87;68.24;101214.53;7411482;19;19930;-86
2023/07/21 07:03:29;;;;;;;2.30;1.33;;;;;;;15.93;68.30;101212.03;7413121;19;19982;-85
2023/07/21 07:06:00;;;;;;;1.15;0.80;;;;;;;15.99;67.68;101203.91;7409252;19;19939;-83
2023/07/21 07:08:29;;;;;;;2.95;1.10;;;;;;;16.05;68.27;101213.13;7412328;19;19955;-84
2023/07/21 07:10:58;;;;;;;3.67;0.82;;;;;;;16.10;67.32;101205.19;7409008;19;19967;-81
2023/07/21 07:13:27;;;;;;;1.92;0.70;;;;;;;16.14;66.61;101204.56;7410733;19;19922;-81
2023/07/21 07:15:56;;;;;;;1.35;0.60;;;;;;;16.17;65.69;101208.78;7405220;19;19927;-71
2023/07/21 07:18:26;;;;;;;1.90;0.82;;;;;;;16.23;66.46;101207.94;7402941;19;19944;-71
2023/07/21 07:20:56;;;;;;;2.00;0.95;;;;;;;16.31;66.70;101214.03;7404443;19;19947;-70
2023/07/21 07:23:29;;;;;;;1.65;0.80;;;;;;;16.38;65.55;101205.88;7403916;19;19925;-70
2023/07/21 07:25:58;;;;;;;0.75;0.60;;;;;;;16.44;64.80;101198.78;7403840;19;19925;-72
2023/07/21 07:28:27;;;;;;;4.20;0.70;;;;;;;16.49;64.85;101202.53;7405158;19;19919;-70
2023/07/21 07:30:56;;;;;;;1.00;0.60;;;;;;;16.51;64.05;101194.19;7403864;19;20311;-70
2023/07/21 07:33:24;;;;;;;2.75;1.08;;;;;;;16.56;64.17;101197.13;7403478;19;19925;-70
2023/07/21 07:35:54;;;;;;;2.28;0.82;;;;;;;16.59;64.58;101200.28;7403213;19;19939;-70
2023/07/21 07:38:30;;;;;;;1.73;0.60;;;;;;;16.62;63.59;101196.31;7403184;19;20474;-70
2023/07/21 07:41:03;;;;;;;1.27;0.77;;;;;;;16.67;64.19;101199.25;7402223;19;19925;-70
2023/07/21 07:43:51;;;;;;;0.90;0.60;;;;;;;16.73;64.14;101193.81;7402108;19;19927;-70
2023/07/21 07:46:20;;;;;;;1.48;0.60;;;;;;;16.76;62.92;101189.84;7400091;19;19943;-71
2023/07/21 07:48:49;;;;;;;1.20;0.70;;;;;;;16.80;63.14;101193.81;7402632;19;19934;-70
2023/07/21 07:51:17;;;;;;;1.00;0.68;;;;;;;16.81;63.32;101190.03;7399725;19;19933;-77
2023/07/21 07:53:49;;;;;;;0.52;0.50;;;;;;;16.86;62.63;101183.97;7406873;19;19939;-78
2023/07/21 07:56:17;;;;;;;1.27;0.70;;;;;;;16.92;62.58;101192.13;7406159;19;19919;-75
2023/07/21 07:58:47;;;;;;;1.85;0.85;;;;;;;16.97;61.74;101184.16;7400868;19;19926;-72
2023/07/21 08:01:15;;;;;;;1.65;1.05;;;;;;;16.99;61.36;101183.97;7403860;19;19947;-78
2023/07/21 08:03:45;;;;;;;1.00;0.85;;;;;;;17.03;62.03;101177.88;7409075;19;19930;-78
2023/07/21 08:06:15;;;;;;;1.30;0.77;;;;;;;17.08;61.72;101183.53;7400802;19;19918;-73
2023/07/21 08:08:44;;;;;;;2.17;1.15;;;;;;;17.19;61.87;101182.03;7398557;19;19991;-72
2023/07/21 08:11:15;;;;;;;1.60;0.88;;;;;;;17.32;61.55;101170.28;7397619;19;19951;-72
2023/07/21 08:13:44;;;;;;;1.10;0.70;;;;;;;17.45;61.39;101170.22;7401342;19;20004;-72
2023/07/21 08:16:15;;;;;;;3.45;1.40;;;;;;;17.58;61.23;101183.84;7404570;19;20361;-73
2023/07/21 08:18:44;;;;;;;2.25;1.00;;;;;;;17.63;60.92;101171.25;7403130;19;19958;-73
2023/07/21 08:21:23;;;;;;;2.35;1.08;;;;;;;17.70;60.83;101171.22;7403360;19;20382;-73
2023/07/21 08:23:54;;;;;;;2.25;1.38;;;;;;;17.82;60.58;101183.09;7404330;19;19943;-73
2023/07/21 08:26:25;;;;;;;;;;;;;;;17.80;59.10;101185.22;7405254;19;19927;-72
2023/07/21 08:28:55;;;;;;;6.05;3.42;;;;;;;17.92;59.40;101183.47;7403491;19;19923;-72
2023/07/21 08:31:24;;;;;;;3.10;1.40;;;;;;;17.98;59.49;101181.78;7402535;19;19915;-72
2023/07/21 08:33:53;;;;;;;2.70;1.10;;;;;;;18.07;58.97;101185.94;7403696;19;19918;-72
2023/07/21 08:36:21;;;;;;;2.78;1.45;;;;;;;18.14;58.74;101176.66;7404019;19;19926;-73
2023/07/21 08:38:51;;;;;;;0.70;0.70;;;;;;;18.25;58.44;101177.00;7402944;19;19930;-73
2023/07/21 08:41:22;;;;;;;1.45;0.80;;;;;;;18.33;57.50;101180.31;7404335;19;19943;-72
2023/07/21 08:43:54;;;;;;;1.15;0.82;;;;;;;18.46;57.77;101185.69;7403152;19;19926;-72
2023/07/21 08:46:23;;;;;;;2.92;1.35;;;;;;;18.57;57.58;101170.50;7398261;19;19936;-72
2023/07/21 08:48:54;;;;;;;2.22;0.95;;;;;;;18.63;58.19;101171.50;7402182;19;19948;-73
2023/07/21 08:51:23;;;;;;;1.38;0.77;;;;;;;18.62;57.48;101173.41;7398549;19;19926;-71
2023/07/21 08:53:51;;;;;;;1.23;0.90;;;;;;;18.61;56.83;101170.88;7403282;19;19926;-87
2023/07/21 08:56:20;;;;;;;2.42;1.20;;;;;;;18.59;55.86;101169.22;7413648;19;19923;-82
2023/07/21 08:58:49;;;;;;;1.48;1.02;;;;;;;18.54;55.91;101169.06;7408562;19;19922;-84
2023/07/21 09:01:20;;;;;;;1.65;0.70;;;;;;;18.48;56.00;101171.78;7412428;19;19919;-85
2023/07/21 09:03:49;;;;;;;2.50;1.08;;;;;;;18.42;56.09;101168.06;7407724;19;19923;-82
2023/07/21 09:06:18;;;;;;;1.70;0.80;;;;;;;18.43;56.57;101164.28;7412425;19;19922;-89
2023/07/21 09:08:49;;;;;;;1.48;0.80;;;;;;;18.50;56.12;101164.25;7411781;19;19919;-87
2023/07/21 09:11:18;;;;;;;3.05;0.90;;;;;;;18.61;55.72;101158.09;7425581;19;19922;-89
2023/07/21 09:13:54;;;;;;;1.30;0.90;;;;;;;18.66;54.82;101169.16;7406906;19;19918;-71
2023/07/21 09:16:25;;;;;;;2.72;1.00;;;;;;;18.62;54.10;101165.22;7402648;19;19939;-71
2023/07/21 09:18:54;;;;;;;4.22;0.95;;;;;;;18.61;55.30;101162.69;7401958;19;19943;-72
2023/07/21 09:21:24;;;;;;;1.25;0.80;;;;;;;18.61;55.65;101166.28;7397629;19;19926;-72
2023/07/21 09:23:53;;;;;;;1.77;1.05;;;;;;;18.70;54.33;101164.09;7399481;19;19957;-78
2023/07/21 09:26:24;;;;;;;2.03;1.23;;;;;;;18.81;53.04;101160.66;7405171;19;19935;-84
2023/07/21 09:28:53;;;;;;;2.03;0.88;;;;;;;18.92;54.16;101158.00;7400949;19;20253;-82
2023/07/21 09:31:29;;;;;;;2.63;0.85;;;;;;;19.07;54.05;101154.09;7398752;19;19984;-82
2023/07/21 09:34:08;;;;;;;3.33;1.10;;;;;;;19.21;54.38;101142.78;7402398;19;19927;-77
2023/07/21 09:36:36;;;;;;;5.28;1.60;;;;;;;19.40;53.49;101151.84;7401158;19;19986;-77
2023/07/21 09:39:07;;;;;;;1.50;1.05;;;;;;;19.54;53.18;101144.34;7403753;19;20035;-77
2023/07/21 09:41:36;;;;;;;2.03;1.00;;;;;;;19.65;52.05;101144.41;7406407;19;20381;-83
2023/07/21 09:44:06;;;;;;;2.58;0.77;;;;;;;19.73;53.54;101149.56;7402744;19;19998;-83
2023/07/21 09:46:41;;;;;;;1.80;0.88;;;;;;;19.77;50.31;101149.91;7403957;19;19930;-77
2023/07/21 09:49:10;;;;;;;2.08;1.05;;;;;;;19.72;52.11;101147.03;7403986;19;19918;-77
2023/07/21 09:51:41;;;;;;;1.60;0.77;;;;;;;19.67;51.52;101139.56;7399908;19;19974;-78
2023/07/21 09:54:18;;;;;;;1.15;0.70;;;;;;;19.77;51.17;101141.72;7401443;19;19930;-77
2023/07/21 09:56:49;;;;;;;1.23;0.80;;;;;;;19.75;51.61;101133.78;7402631;19;20704;-77
2023/07/21 09:59:19;;;;;;;1.73;0.60;;;;;;;19.67;51.03;101139.56;7401795;19;19940;-77
2023/07/21 10:01:51;;;;;;;1.65;0.80;;;;;;;19.61;50.95;101140.47;7401554;19;20331;-77
2023/07/21 10:04:21;;;;;;;;;;;;;;;19.67;48.76;101144.19;7408925;19;19914;-77
2023/07/21 10:06:50;;;;;;;2.97;1.00;;;;;;;19.99;50.57;101134.69;7403571;19;19926;-78
2023/07/21 10:09:19;;;;;;;14.07;3.47;;;;;;;20.16;49.87;101129.38;7402816;19;19951;-80
2023/07/21 10:11:49;;;;;;;1.40;0.68;;;;;;;20.21;49.30;101135.81;7397731;19;19935;-80
2023/07/21 10:14:34;;;;;;;1.98;0.80;;;;;;;20.14;48.79;101124.16;7404330;19;19943;-87
2023/07/21 10:17:05;;;;;;;2.63;1.80;;;;;;;20.11;48.93;101134.72;7399763;19;19946;-79
2023/07/21 10:19:41;;;;;;;1.17;0.80;;;;;;;20.10;47.82;101128.44;7398164;19;19922;-85
2023/07/21 10:22:13;;;;;;;3.15;2.38;;;;;;;20.05;48.68;101136.50;7402550;19;20029;-82
2023/07/21 10:24:47;;;;;;;2.33;1.60;;;;;;;20.01;49.23;101126.25;7405225;19;20338;-84
2023/07/21 10:27:22;;;;;;;6.70;2.95;;;;;;;20.03;48.57;101127.69;7404143;19;19926;-80
2023/07/21 10:29:56;;;;;;;1.90;0.90;;;;;;;20.09;48.87;101120.44;7404733;19;19955;-81
2023/07/21 10:32:27;;;;;;;5.97;3.38;;;;;;;20.38;47.85;101131.38;7403206;19;20272;-82
2023/07/21 10:34:56;;;;;;;4.22;2.40;;;;;;;20.68;48.34;101124.97;7406477;19;19915;-86
2023/07/21 10:37:24;;;;;;;3.42;1.50;;;;;;;20.99;47.60;101126.53;7399794;19;20497;-80
2023/07/21 10:39:56;;;;;;;3.15;2.03;;;;;;;21.12;45.88;101121.66;7402996;19;19960;-80
2023/07/21 10:42:25;;;;;;;3.28;1.90;;;;;;;21.21;47.11;101122.97;7404653;19;19926;-81
2023/07/21 10:44:54;;;;;;;3.67;0.93;;;;;;;21.09;45.72;101116.66;7406147;19;19946;-80
2023/07/21 10:47:24;;;;;;;1.33;0.70;;;;;;;21.05;46.01;101120.94;7407801;19;19927;-78
2023/07/21 10:49:56;;;;;;;3.17;0.90;;;;;;;21.07;45.93;101123.44;7405308;19;19926;-79
2023/07/21 10:52:24;;;;;;;2.67;0.80;;;;;;;21.08;46.03;101114.97;7403699;19;19933;-79
2023/07/21 10:54:53;;;;;;;1.10;0.60;;;;;;;21.28;46.02;101120.09;7401071;19;19944;-78
2023/07/21 10:57:22;;;;;;;1.75;0.93;;;;;;;21.46;46.15;101111.72;7402894;19;20293;-80
2023/07/21 10:59:50;;;;;;;2.05;0.90;;;;;;;21.48;45.36;101109.56;7400915;19;19919;-77
2023/07/21 11:02:27;;;;;;;1.25;0.77;;;;;;;21.59;44.77;101118.81;7398278;19;19947;-76
2023/07/21 11:05:02;;;;;;;2.65;1.10;;;;;;;21.69;43.05;101110.81;7397673;19;19915;-80
2023/07/21 11:07:31;;;;;;;5.60;1.98;;;;;;;21.67;44.92;101107.47;7403283;19;19954;-83
2023/07/21 11:10:01;;;;;;;7.53;2.55;;;;;;;21.62;45.49;101112.84;7405834;19;19923;-85
2023/07/21 11:12:30;;;;;;;1.70;1.00;;;;;;;21.52;45.61;101101.69;7405518;19;19926;-85
2023/07/21 11:14:58;;;;;;;1.90;1.05;;;;;;;21.34;45.72;101108.16;7399627;19;20369;-81
2023/07/21 11:17:27;;;;;;;2.13;1.30;;;;;;;21.17;46.15;101102.63;7398069;19;19922;-81
2023/07/21 11:20:09;;;;;;;7.07;1.42;;;;;;;20.98;45.96;101108.44;7400770;19;19930;-81
2023/07/21 11:22:37;;;;;;;1.35;0.90;;;;;;;20.80;47.09;101112.13;7404576;19;19939;-81
2023/07/21 11:25:10;;;;;;;1.42;1.05;;;;;;;20.59;46.16;101109.97;7407047;19;19922;-82
2023/07/21 11:27:44;;;;;;;2.03;1.17;;;;;;;20.47;46.36;101107.25;7405277;19;19923;-81
2023/07/21 11:30:19;;;;;;;2.40;0.98;;;;;;;20.45;47.07;101108.56;7406868;19;20363;-82
2023/07/21 11:32:49;;;;;;;1.88;0.93;;;;;;;20.48;46.86;101103.44;7410282;19;19929;-82
2023/07/21 11:35:21;;;;;;;1.42;0.80;;;;;;;20.53;47.11;101102.72;7413725;19;19919;-82
2023/07/21 11:37:49;;;;;;;;;;;;;;;20.59;46.41;101099.88;7414663;19;19923;-81
2023/07/21 11:40:24;;;;;;;1.20;0.80;;;;;;;20.89;46.45;101099.75;7411920;19;19951;-81